createdAt,value
2023-03-16T00:02:11.399Z,10.50
2023-03-16T00:04:38.611Z,5.50
2023-03-16T00:07:11.284Z,4.90
2023-03-16T00:09:41.020Z,4.77
2023-03-16T00:12:16.603Z,4.70
2023-03-16T00:14:45.901Z,4.83
2023-03-16T00:17:19.227Z,5.10
2023-03-16T00:19:49.181Z,5.07
2023-03-16T00:22:16.712Z,4.43
2023-03-16T00:24:43.859Z,5.03
2023-03-16T00:27:16.102Z,4.97
2023-03-16T00:29:55.557Z,4.83
2023-03-16T00:32:37.852Z,4.97
2023-03-16T00:35:08.188Z,4.80
2023-03-16T00:37:37.518Z,5.13
2023-03-16T00:40:07.674Z,4.10
2023-03-16T00:42:34.598Z,4.20
2023-03-16T00:45:01.742Z,4.10
2023-03-16T00:47:32.697Z,4.80
2023-03-16T00:50:01.461Z,4.50
2023-03-16T00:52:29.287Z,3.93
2023-03-16T00:54:56.304Z,4.17
2023-03-16T00:57:25.732Z,4.50
2023-03-16T00:59:52.607Z,4.43
2023-03-16T01:02:19.878Z,4.70
2023-03-16T01:04:46.627Z,4.60
2023-03-16T01:07:15.135Z,4.30
2023-03-16T01:09:43.145Z,4.13
2023-03-16T01:12:17.321Z,4.30
2023-03-16T01:14:45.833Z,4.03
2023-03-16T01:17:14.099Z,4.20
2023-03-16T01:19:41.860Z,4.07
2023-03-16T01:22:10.001Z,4.50
2023-03-16T01:24:38.167Z,4.20
2023-03-16T01:27:05.637Z,4.23
2023-03-16T01:29:33.106Z,4.63
2023-03-16T01:32:01.582Z,4.40
2023-03-16T01:34:28.492Z,5.63
2023-03-16T01:36:56.303Z,4.33
2023-03-16T01:39:23.183Z,4.60
2023-03-16T01:41:50.296Z,3.87
2023-03-16T01:44:28.119Z,3.80
2023-03-16T01:46:54.864Z,4.70
2023-03-16T01:49:26.682Z,5.00
2023-03-16T01:52:12.534Z,4.00
2023-03-16T01:54:58.679Z,4.20
2023-03-16T01:57:36.975Z,4.17
2023-03-16T02:00:21.739Z,5.03
2023-03-16T02:02:56.360Z,4.80
2023-03-16T02:05:34.732Z,3.90
2023-03-16T02:08:02.919Z,4.37
2023-03-16T02:10:31.019Z,6.90
2023-03-16T02:12:58.683Z,4.13
2023-03-16T02:15:27.272Z,4.30
2023-03-16T02:17:54.283Z,4.40
2023-03-16T02:20:56.795Z,4.43
2023-03-16T02:23:25.311Z,4.67
2023-03-16T02:26:14.833Z,4.80
2023-03-16T02:29:20.361Z,4.50
2023-03-16T02:31:47.560Z,4.13
2023-03-16T02:34:16.978Z,4.70
2023-03-16T02:36:48.452Z,4.97
2023-03-16T02:39:15.178Z,4.67
2023-03-16T02:41:42.201Z,3.87
2023-03-16T02:44:18.510Z,4.83
2023-03-16T02:46:48.074Z,4.33
2023-03-16T02:49:29.885Z,4.27
2023-03-16T02:51:57.496Z,4.93
2023-03-16T02:54:24.665Z,4.07
2023-03-16T02:56:51.672Z,4.40
2023-03-16T02:59:18.429Z,4.33
2023-03-16T03:01:45.376Z,4.43
2023-03-16T03:04:12.156Z,4.87
2023-03-16T03:06:39.024Z,5.07
2023-03-16T03:09:07.642Z,4.60
2023-03-16T03:11:34.462Z,4.57
2023-03-16T03:14:01.219Z,4.70
2023-03-16T03:16:28.088Z,4.17
2023-03-16T03:18:54.816Z,4.00
2023-03-16T03:21:23.765Z,4.63
2023-03-16T03:23:50.975Z,4.33
2023-03-16T03:26:18.374Z,4.67
2023-03-16T03:28:45.922Z,3.93
2023-03-16T03:31:21.754Z,5.90
2023-03-16T03:33:49.238Z,4.43
2023-03-16T03:36:15.994Z,6.17
2023-03-16T03:38:44.010Z,4.13
2023-03-16T03:41:10.748Z,4.57
2023-03-16T03:43:37.466Z,4.53
2023-03-16T03:46:04.547Z,4.83
2023-03-16T03:48:31.572Z,4.50
2023-03-16T03:50:58.423Z,4.10
2023-03-16T03:53:25.610Z,6.80
2023-03-16T03:55:52.984Z,3.60
2023-03-16T03:58:19.679Z,4.50
2023-03-16T04:00:46.739Z,4.07
2023-03-16T04:03:14.176Z,4.17
2023-03-16T04:05:41.190Z,4.20
2023-03-16T04:08:08.143Z,4.63
2023-03-16T04:10:35.088Z,4.00
2023-03-16T04:13:02.831Z,4.10
2023-03-16T04:15:32.780Z,4.13
2023-03-16T04:18:00.005Z,4.00
2023-03-16T04:20:27.214Z,3.90
2023-03-16T04:22:58.424Z,4.37
2023-03-16T04:25:27.411Z,4.83
2023-03-16T04:27:54.426Z,4.70
2023-03-16T04:30:23.225Z,4.30
2023-03-16T04:32:50.938Z,3.97
2023-03-16T04:35:17.976Z,4.37
2023-03-16T04:37:44.705Z,4.40
2023-03-16T04:40:19.367Z,4.13
2023-03-16T04:42:47.778Z,4.23
2023-03-16T04:45:17.606Z,4.40
2023-03-16T04:47:44.626Z,4.10
2023-03-16T04:50:12.309Z,3.80
2023-03-16T04:52:39.379Z,3.90
2023-03-16T04:55:06.486Z,4.77
2023-03-16T04:57:33.291Z,4.47
2023-03-16T05:00:00.011Z,4.73
2023-03-16T05:02:27.545Z,4.03
2023-03-16T05:04:55.068Z,3.53
2023-03-16T05:07:21.815Z,4.90
2023-03-16T05:09:48.607Z,3.97
2023-03-16T05:12:15.348Z,5.47
2023-03-16T05:14:42.053Z,4.20
2023-03-16T05:17:08.955Z,6.37
2023-03-16T05:19:35.673Z,5.37
2023-03-16T05:22:02.400Z,5.30
2023-03-16T05:24:29.107Z,4.23
2023-03-16T05:26:55.853Z,4.80
2023-03-16T05:29:22.569Z,4.60
2023-03-16T05:31:49.284Z,4.83
2023-03-16T05:34:16.123Z,4.87
2023-03-16T05:36:44.895Z,6.43
2023-03-16T05:39:11.826Z,5.17
2023-03-16T05:41:40.046Z,4.50
2023-03-16T05:44:08.094Z,5.17
2023-03-16T05:46:35.014Z,5.07
2023-03-16T05:49:02.906Z,5.40
2023-03-16T05:51:29.809Z,5.43
2023-03-16T05:53:57.391Z,4.70
2023-03-16T05:56:29.188Z,5.10
2023-03-16T05:58:56.685Z,5.03
2023-03-16T06:01:23.799Z,4.47
2023-03-16T06:03:54.159Z,4.73
2023-03-16T06:06:22.565Z,4.63
2023-03-16T06:08:49.548Z,5.00
2023-03-16T06:11:17.564Z,4.57
2023-03-16T06:13:44.395Z,5.07
2023-03-16T06:16:13.731Z,5.23
2023-03-16T06:18:41.384Z,4.77
2023-03-16T06:21:08.389Z,4.90
2023-03-16T06:23:35.730Z,4.77
2023-03-16T06:26:02.490Z,5.97
2023-03-16T06:28:30.673Z,6.23
2023-03-16T06:30:58.219Z,5.07
2023-03-16T06:33:25.718Z,5.23
2023-03-16T06:35:52.975Z,4.03
2023-03-16T06:38:19.930Z,4.90
2023-03-16T06:40:51.652Z,4.77
2023-03-16T06:43:18.449Z,5.60
2023-03-16T06:45:45.381Z,5.33
2023-03-16T06:48:12.146Z,4.90
2023-03-16T06:50:38.855Z,4.97
2023-03-16T06:53:05.592Z,5.17
2023-03-16T06:55:32.321Z,4.70
2023-03-16T06:57:59.081Z,4.47
2023-03-16T07:00:26.427Z,4.87
2023-03-16T07:02:53.373Z,4.90
2023-03-16T07:05:20.117Z,5.00
2023-03-16T07:07:46.850Z,4.40
2023-03-16T07:10:17.377Z,4.13
2023-03-16T07:12:44.764Z,4.40
2023-03-16T07:15:12.966Z,4.20
2023-03-16T07:17:40.439Z,4.27
2023-03-16T07:20:10.817Z,4.60
2023-03-16T07:22:39.457Z,3.83
2023-03-16T07:25:07.870Z,3.90
2023-03-16T07:27:34.588Z,3.93
2023-03-16T07:30:01.311Z,3.43
2023-03-16T07:32:28.196Z,3.70
2023-03-16T07:34:55.763Z,3.83
2023-03-16T07:37:25.723Z,4.23
2023-03-16T07:39:53.024Z,3.73
2023-03-16T07:42:22.561Z,4.60
2023-03-16T07:44:51.765Z,3.77
2023-03-16T07:47:19.014Z,3.63
2023-03-16T07:49:45.783Z,3.50
2023-03-16T07:52:15.109Z,3.57
2023-03-16T07:54:42.083Z,3.70
2023-03-16T07:57:09.335Z,3.43
2023-03-16T07:59:36.099Z,3.23
2023-03-16T08:02:03.761Z,3.27
2023-03-16T08:04:31.207Z,4.90
2023-03-16T08:07:00.168Z,3.17
2023-03-16T08:09:27.496Z,3.57
2023-03-16T08:11:54.404Z,4.40
2023-03-16T08:14:21.185Z,3.00
2023-03-16T08:16:47.920Z,3.03
2023-03-16T08:19:14.761Z,4.80
2023-03-16T08:21:59.746Z,4.63
2023-03-16T08:24:29.397Z,3.20
2023-03-16T08:26:57.449Z,3.87
2023-03-16T08:29:26.000Z,3.40
2023-03-16T08:31:56.392Z,2.87
2023-03-16T08:34:27.607Z,2.47
2023-03-16T08:36:55.236Z,3.20
2023-03-16T08:39:22.580Z,3.27
2023-03-16T08:41:49.491Z,3.00
2023-03-16T08:44:17.344Z,3.00
2023-03-16T08:46:44.703Z,3.00
2023-03-16T08:49:12.892Z,2.90
2023-03-16T08:51:39.633Z,3.43
2023-03-16T08:54:07.329Z,2.83
2023-03-16T08:56:34.183Z,4.20
2023-03-16T08:59:00.970Z,3.03
2023-03-16T09:01:27.779Z,5.87
2023-03-16T09:03:54.920Z,2.87
2023-03-16T09:06:22.350Z,3.03
2023-03-16T09:08:49.139Z,3.53
2023-03-16T09:11:18.992Z,2.80
2023-03-16T09:13:47.184Z,2.88
2023-03-16T09:16:15.651Z,2.80
2023-03-16T09:18:43.141Z,2.40
2023-03-16T09:21:13.802Z,3.50
2023-03-16T09:23:42.708Z,5.90
2023-03-16T09:26:12.402Z,3.10
2023-03-16T09:28:42.003Z,3.23
2023-03-16T09:31:15.248Z,2.97
2023-03-16T09:33:42.749Z,3.67
2023-03-16T09:36:11.799Z,3.03
2023-03-16T09:38:39.207Z,3.20
2023-03-16T09:41:22.458Z,2.80
2023-03-16T09:44:23.523Z,2.63
2023-03-16T09:46:51.494Z,3.53
2023-03-16T09:49:25.857Z,3.70
2023-03-16T09:52:40.922Z,2.40
2023-03-16T09:55:48.278Z,3.50
2023-03-16T09:59:29.424Z,3.23
2023-03-16T10:03:10.698Z,3.37
2023-03-16T10:11:43.928Z,3.57
2023-03-16T10:14:34.783Z,4.53
2023-03-16T10:17:17.699Z,3.20
2023-03-16T10:19:54.277Z,4.33
2023-03-16T10:22:30.933Z,3.27
2023-03-16T10:25:41.523Z,3.97
2023-03-16T10:28:16.718Z,4.07
2023-03-16T10:30:44.054Z,3.47
2023-03-16T10:33:27.432Z,3.03
2023-03-16T10:36:13.908Z,3.13
2023-03-16T10:38:49.280Z,2.50
2023-03-16T10:41:21.352Z,2.07
2023-03-16T10:43:55.454Z,2.97
2023-03-16T10:46:25.770Z,6.60
2023-03-16T10:49:00.198Z,2.73
2023-03-16T10:51:34.751Z,2.57
2023-03-16T10:54:21.736Z,3.10
2023-03-16T10:56:50.509Z,2.57
2023-03-16T10:59:34.266Z,2.30
2023-03-16T11:02:17.743Z,2.10
2023-03-16T11:04:45.980Z,2.80
2023-03-16T11:07:19.868Z,3.10
2023-03-16T11:09:47.718Z,2.90
2023-03-16T11:12:30.094Z,2.53
2023-03-16T11:15:29.270Z,2.40
2023-03-16T11:17:56.799Z,2.77
2023-03-16T11:20:34.217Z,2.90
2023-03-16T11:23:02.493Z,3.23
2023-03-16T11:25:41.319Z,2.70
2023-03-16T11:28:32.584Z,3.17
2023-03-16T11:31:17.363Z,3.53
2023-03-16T11:33:44.371Z,2.77
2023-03-16T11:36:37.914Z,3.20
2023-03-16T11:39:43.290Z,3.00
2023-03-16T11:42:30.676Z,3.17
2023-03-16T11:45:40.357Z,2.30
2023-03-16T11:48:29.462Z,2.67
2023-03-16T11:51:34.126Z,2.70
2023-03-16T11:54:52.639Z,2.93
2023-03-16T11:57:46.670Z,3.10
2023-03-16T12:01:15.777Z,3.10
2023-03-16T12:04:18.352Z,4.53
2023-03-16T12:07:31.686Z,5.53
2023-03-16T12:10:03.730Z,3.90
2023-03-16T12:13:20.463Z,2.70
2023-03-16T12:16:01.718Z,2.97
2023-03-16T12:18:54.150Z,3.77
2023-03-16T12:21:37.671Z,2.60
2023-03-16T12:24:11.074Z,2.70
2023-03-16T12:26:41.997Z,3.13
2023-03-16T12:29:26.296Z,3.53
2023-03-16T12:32:24.827Z,3.87
2023-03-16T12:35:13.111Z,3.13
2023-03-16T12:37:59.851Z,3.13
2023-03-16T12:40:46.326Z,3.47
2023-03-16T12:43:29.000Z,4.13
2023-03-16T12:46:18.490Z,3.30
2023-03-16T12:48:50.985Z,3.00
2023-03-16T12:51:18.160Z,2.67
2023-03-16T12:53:55.560Z,2.70
2023-03-16T12:56:30.642Z,2.43
2023-03-16T12:59:01.509Z,2.30
2023-03-16T13:01:42.351Z,2.47
2023-03-16T13:04:19.643Z,3.17
2023-03-16T13:07:05.045Z,2.90
2023-03-16T13:09:32.454Z,3.00
2023-03-16T13:11:59.661Z,3.40
2023-03-16T13:14:44.025Z,3.43
2023-03-16T13:17:16.791Z,2.57
2023-03-16T13:20:31.166Z,2.10
2023-03-16T13:23:18.388Z,2.40
2023-03-16T13:26:05.592Z,2.40
2023-03-16T13:28:38.569Z,2.70
2023-03-16T13:31:41.544Z,2.57
2023-03-16T13:34:19.351Z,2.93
2023-03-16T13:36:47.075Z,2.87
2023-03-16T13:39:22.191Z,2.47
2023-03-16T13:42:18.172Z,2.60
2023-03-16T13:44:45.690Z,2.67
2023-03-16T13:47:20.247Z,2.60
2023-03-16T13:49:50.865Z,3.07
2023-03-16T13:52:34.264Z,2.57
2023-03-16T13:55:07.504Z,2.50
2023-03-16T13:57:41.903Z,3.63
2023-03-16T14:00:25.260Z,2.80
2023-03-16T14:03:01.249Z,2.60
2023-03-16T14:05:35.246Z,2.77
2023-03-16T14:08:02.416Z,2.20
2023-03-16T14:10:34.455Z,9.40
2023-03-16T14:13:10.215Z,2.70
2023-03-16T14:15:38.614Z,2.20
2023-03-16T14:18:16.636Z,2.40
2023-03-16T14:20:43.633Z,2.43
2023-03-16T14:23:28.412Z,2.10
2023-03-16T14:25:55.716Z,1.87
2023-03-16T14:28:32.257Z,2.13
2023-03-16T14:31:12.370Z,2.60
2023-03-16T14:33:42.806Z,1.80
2023-03-16T14:36:18.608Z,1.27
2023-03-16T14:38:48.485Z,1.70
2023-03-16T14:41:27.548Z,2.03
2023-03-16T14:43:58.348Z,1.27
2023-03-16T14:46:30.651Z,1.60
2023-03-16T14:49:21.039Z,1.58
2023-03-16T14:51:52.634Z,1.87
2023-03-16T14:54:22.321Z,1.93
2023-03-16T14:56:52.689Z,1.93
2023-03-16T14:59:20.776Z,1.67
2023-03-16T15:01:50.333Z,2.00
2023-03-16T15:04:28.257Z,2.33
2023-03-16T15:06:55.340Z,2.45
2023-03-16T15:09:39.385Z,2.60
2023-03-16T15:12:19.538Z,3.00
2023-03-16T15:15:06.246Z,2.13
2023-03-16T15:17:33.451Z,2.87
2023-03-16T15:20:01.153Z,2.90
2023-03-16T15:22:35.402Z,2.50
2023-03-16T15:25:22.865Z,3.13
2023-03-16T15:27:50.428Z,3.00
2023-03-16T15:30:21.771Z,2.77
2023-03-16T15:32:48.697Z,3.67
2023-03-16T15:35:16.005Z,3.90
2023-03-16T15:37:43.091Z,3.17
2023-03-16T15:40:24.229Z,3.33
2023-03-16T15:42:51.769Z,3.30
2023-03-16T15:45:22.350Z,3.37
2023-03-16T15:47:52.981Z,3.67
2023-03-16T15:50:24.504Z,5.80
2023-03-16T15:52:59.257Z,3.40
2023-03-16T15:55:36.568Z,3.47
2023-03-16T15:58:05.249Z,4.60
2023-03-16T16:00:39.488Z,7.30
2023-03-16T16:03:07.397Z,4.00
2023-03-16T16:05:34.392Z,4.00
2023-03-16T16:08:01.347Z,4.13
2023-03-16T16:10:28.791Z,6.30
2023-03-16T16:12:57.203Z,4.17
2023-03-16T16:15:36.986Z,3.70
2023-03-16T16:18:30.044Z,3.50
2023-03-16T16:20:59.125Z,3.63
2023-03-16T16:23:27.291Z,4.53
2023-03-16T16:26:02.685Z,4.10
2023-03-16T16:28:32.903Z,4.53
2023-03-16T16:31:04.203Z,3.87
2023-03-16T16:33:34.886Z,3.57
2023-03-16T16:36:06.095Z,4.13
2023-03-16T16:38:33.996Z,4.97
2023-03-16T16:41:07.756Z,4.20
2023-03-16T16:43:47.021Z,4.67
2023-03-16T16:46:26.391Z,3.70
2023-03-16T16:49:00.860Z,3.60
2023-03-16T16:51:29.806Z,3.97
2023-03-16T16:53:59.235Z,3.83
2023-03-16T16:56:35.731Z,3.90
2023-03-16T16:59:15.623Z,3.70
2023-03-16T17:01:42.439Z,4.60
2023-03-16T17:04:17.176Z,4.63
2023-03-16T17:06:46.010Z,3.40
2023-03-16T17:09:14.244Z,4.00
2023-03-16T17:11:45.265Z,4.17
2023-03-16T17:14:21.705Z,3.63
2023-03-16T17:16:51.485Z,3.70
2023-03-16T17:19:27.878Z,3.87
2023-03-16T17:21:57.297Z,3.77
2023-03-16T17:24:24.545Z,3.43
2023-03-16T17:26:55.832Z,3.40
2023-03-16T17:29:28.929Z,3.67
2023-03-16T17:31:56.141Z,3.73
2023-03-16T17:34:29.485Z,3.57
2023-03-16T17:36:56.343Z,3.40
2023-03-16T17:39:26.994Z,2.80
2023-03-16T17:42:10.780Z,2.97
2023-03-16T17:44:46.245Z,2.80
2023-03-16T17:47:21.427Z,2.43
2023-03-16T17:49:49.150Z,2.73
2023-03-16T17:52:23.230Z,4.13
2023-03-16T17:54:52.518Z,3.87
2023-03-16T17:57:29.283Z,3.93
2023-03-16T17:59:56.483Z,4.20
2023-03-16T18:02:54.109Z,3.80
2023-03-16T18:05:29.959Z,3.63
2023-03-16T18:08:06.697Z,3.90
2023-03-16T18:10:33.904Z,5.27
2023-03-16T18:13:12.606Z,5.00
2023-03-16T18:15:39.685Z,6.53
2023-03-16T18:18:07.797Z,7.03
2023-03-16T18:20:36.514Z,8.60
2023-03-16T18:23:16.983Z,8.73
2023-03-16T18:25:44.844Z,7.10
2023-03-16T18:28:13.785Z,6.20
2023-03-16T18:30:45.129Z,6.47
2023-03-16T18:33:28.510Z,5.90
2023-03-16T18:35:59.344Z,9.27
2023-03-16T18:38:37.645Z,6.63
2023-03-16T18:41:24.973Z,5.77
2023-03-16T18:43:58.664Z,6.63
2023-03-16T18:46:35.741Z,6.53
2023-03-16T18:49:12.929Z,5.77
2023-03-16T18:51:40.891Z,5.17
2023-03-16T18:54:24.338Z,2.87
2023-03-16T18:56:52.744Z,3.00
2023-03-16T18:59:20.473Z,2.50
2023-03-16T19:01:47.924Z,3.23
2023-03-16T19:04:24.206Z,3.77
2023-03-16T19:06:53.991Z,4.30
2023-03-16T19:09:26.872Z,5.77
2023-03-16T19:11:53.833Z,6.63
2023-03-16T19:14:32.967Z,6.47
2023-03-16T19:17:00.024Z,5.30
2023-03-16T19:19:27.256Z,5.07
2023-03-16T19:22:23.798Z,5.47
2023-03-16T19:24:55.073Z,5.13
2023-03-16T19:27:32.877Z,6.00
2023-03-16T19:29:59.671Z,6.60
2023-03-16T19:32:26.434Z,7.70
2023-03-16T19:34:53.173Z,8.13
2023-03-16T19:37:20.648Z,6.43
2023-03-16T19:39:47.445Z,5.87
2023-03-16T19:42:27.501Z,5.27
2023-03-16T19:44:54.473Z,5.53
2023-03-16T19:47:31.559Z,5.30
2023-03-16T19:49:59.373Z,7.93
2023-03-16T19:52:28.185Z,7.63
2023-03-16T19:54:54.919Z,10.03
2023-03-16T19:57:22.063Z,9.83
2023-03-16T19:59:56.662Z,9.10
2023-03-16T20:02:29.348Z,10.23
2023-03-16T20:04:56.756Z,9.37
2023-03-16T20:07:23.823Z,8.00
2023-03-16T20:09:51.086Z,6.77
2023-03-16T20:12:25.947Z,5.87
2023-03-16T20:14:53.492Z,6.07
2023-03-16T20:17:25.884Z,5.13
2023-03-16T20:19:52.952Z,4.83
2023-03-16T20:22:23.660Z,4.63
2023-03-16T20:24:51.527Z,4.30
2023-03-16T20:27:22.228Z,4.40
2023-03-16T20:29:50.496Z,4.23
2023-03-16T20:32:30.615Z,4.20
2023-03-16T20:34:58.081Z,5.00
2023-03-16T20:37:29.621Z,4.10
2023-03-16T20:39:58.920Z,4.77
2023-03-16T20:42:34.558Z,4.37
2023-03-16T20:45:01.913Z,4.10
2023-03-16T20:47:28.727Z,3.70
2023-03-16T20:49:57.355Z,3.13
2023-03-16T20:52:30.080Z,3.30
2023-03-16T20:54:57.956Z,3.20
2023-03-16T20:57:27.568Z,2.53
2023-03-16T20:59:55.200Z,2.27
2023-03-16T21:02:35.975Z,2.53
2023-03-16T21:05:06.469Z,2.00
2023-03-16T21:07:33.389Z,2.30
2023-03-16T21:10:00.199Z,2.30
2023-03-16T21:12:34.080Z,2.37
2023-03-16T21:15:02.761Z,2.00
2023-03-16T21:17:37.235Z,3.80
2023-03-16T21:20:20.812Z,2.57
2023-03-16T21:22:47.830Z,3.27
2023-03-16T21:25:34.307Z,3.03
2023-03-16T21:28:05.039Z,2.70
2023-03-16T21:30:39.368Z,5.20
2023-03-16T21:33:29.863Z,3.17
2023-03-16T21:35:58.948Z,2.67
2023-03-16T21:38:29.057Z,2.97
2023-03-16T21:40:56.484Z,3.03
2023-03-16T21:43:23.994Z,3.80
2023-03-16T21:45:51.913Z,2.77
2023-03-16T21:48:41.342Z,2.57
2023-03-16T21:51:14.551Z,3.20
2023-03-16T21:53:41.820Z,2.90
2023-03-16T21:56:17.219Z,2.60
2023-03-16T21:58:45.603Z,2.87
2023-03-16T22:01:24.722Z,2.60
2023-03-16T22:03:55.383Z,2.90
2023-03-16T22:06:25.420Z,2.60
2023-03-16T22:08:52.492Z,2.60
2023-03-16T22:11:23.542Z,2.40
2023-03-16T22:13:51.589Z,2.40
2023-03-16T22:16:23.076Z,2.80
2023-03-16T22:18:52.814Z,2.20
2023-03-16T22:21:22.492Z,2.87
2023-03-16T22:23:49.613Z,2.80
2023-03-16T22:26:20.500Z,2.47
2023-03-16T22:28:48.072Z,2.53
2023-03-16T22:31:19.337Z,2.80
2023-03-16T22:33:48.599Z,2.70
2023-03-16T22:36:19.799Z,2.50
2023-03-16T22:39:02.277Z,2.63
2023-03-16T22:41:30.414Z,2.97
2023-03-16T22:43:58.050Z,2.93
2023-03-16T22:46:28.181Z,2.73
2023-03-16T22:48:56.985Z,2.80
2023-03-16T22:51:36.245Z,2.60
2023-03-16T22:54:09.103Z,2.93
2023-03-16T22:56:36.033Z,2.70
2023-03-16T22:59:07.484Z,2.53
2023-03-16T23:01:42.358Z,2.50
2023-03-16T23:04:21.826Z,2.70
2023-03-16T23:06:53.630Z,2.23
2023-03-16T23:09:22.174Z,2.37
2023-03-16T23:11:55.265Z,3.00
2023-03-16T23:14:27.096Z,2.43
2023-03-16T23:16:53.995Z,2.50
2023-03-16T23:19:24.896Z,2.53
2023-03-16T23:21:54.927Z,2.30
2023-03-16T23:24:22.979Z,2.63
2023-03-16T23:26:52.696Z,2.90
2023-03-16T23:29:21.553Z,2.90
2023-03-16T23:31:49.001Z,2.20
2023-03-16T23:34:20.558Z,2.67
2023-03-16T23:36:48.244Z,5.70
2023-03-16T23:39:15.085Z,2.70
2023-03-16T23:41:46.573Z,2.77
2023-03-16T23:44:21.282Z,2.53
2023-03-16T23:46:48.036Z,3.50
2023-03-16T23:49:22.912Z,2.30
2023-03-16T23:51:50.888Z,2.53
2023-03-16T23:54:22.945Z,2.40
2023-03-16T23:56:50.594Z,3.20
2023-03-16T23:59:19.161Z,2.80
